Time;durP1;ratioP1;P1;durP2;ratioP2;P2;SDS_P1;SDS_P2;PMS_P1;PMS_P2;Temp;Humidity;BMP_temperature;BMP_pressure;BME280_temperature;BME280_humidity;BME280_pressure;Samples;Min_cycle;Max_cycle;Signal;HPM_P1;HPM_P2
2022/05/13 00:02:08;;;;;;;4.80;4.27;;;;;;;;;;5051870;28;20207;-41
2022/05/13 00:04:35;;;;;;;4.50;4.10;;;;;;;;;;5052040;28;20226;-39
2022/05/13 00:07:02;;;;;;;7.63;4.90;;;;;;;;;;5044860;28;20224;-43
2022/05/13 00:12:12;;;;;;;4.27;3.70;;;;;;;;;;5041843;28;20227;-37
2022/05/13 00:14:39;;;;;;;5.27;3.93;;;;;;;;;;5044899;28;20207;-41
2022/05/13 00:17:07;;;;;;;4.83;4.33;;;;;;;;;;5050678;28;20227;-40
2022/05/13 00:19:34;;;;;;;6.23;4.57;;;;;;;;;;5046794;28;20232;-43
2022/05/13 00:22:02;;;;;;;5.20;4.70;;;;;;;;;;5042538;28;20204;-43
2022/05/13 00:24:33;;;;;;;6.03;4.43;;;;;;;;;;5050048;28;20211;-42
2022/05/13 00:27:00;;;;;;;6.43;4.47;;;;;;;;;;5043364;28;20276;-41
2022/05/13 00:29:27;;;;;;;5.30;4.43;;;;;;;;;;5043343;28;20215;-34
2022/05/13 00:31:55;;;;;;;5.70;4.63;;;;;;;;;;5049541;28;20208;-40
2022/05/13 00:34:22;;;;;;;5.43;4.87;;;;;;;;;;5050764;28;20211;-40
2022/05/13 00:36:49;;;;;;;5.03;4.10;;;;;;;;;;5043035;28;20233;-42
2022/05/13 00:39:16;;;;;;;5.90;4.40;;;;;;;;;;5044428;28;20207;-37
2022/05/13 00:41:45;;;;;;;6.27;4.13;;;;;;;;;;5045156;28;20224;-39
2022/05/13 00:44:12;;;;;;;5.30;4.50;;;;;;;;;;5048508;28;20208;-43
2022/05/13 00:46:39;;;;;;;7.33;4.37;;;;;;;;;;5052931;28;20238;-42
2022/05/13 00:49:08;;;;;;;4.70;3.90;;;;;;;;;;5052019;28;20204;-40
2022/05/13 00:51:37;;;;;;;6.70;4.60;;;;;;;;;;5041417;28;20215;-39
2022/05/13 00:54:06;;;;;;;5.77;5.17;;;;;;;;;;5046141;28;20269;-41
2022/05/13 00:56:33;;;;;;;6.13;4.63;;;;;;;;;;5045448;28;20235;-43
2022/05/13 00:59:03;;;;;;;4.73;4.27;;;;;;;;;;5046629;28;20212;-39
2022/05/13 01:01:31;;;;;;;7.10;4.67;;;;;;;;;;5045150;28;20207;-43
2022/05/13 02:32:46;;;;;;;5.83;5.00;;;;;;;;;;5037181;28;20312;-31
2022/05/13 02:35:13;;;;;;;5.73;4.70;;;;;;;;;;5039744;28;20212;-29
2022/05/13 02:37:40;;;;;;;5.40;4.90;;;;;;;;;;5051996;28;20203;-28
2022/05/13 02:40:08;;;;;;;4.97;4.57;;;;;;;;;;5052246;28;20202;-30
2022/05/13 02:42:35;;;;;;;6.80;4.90;;;;;;;;;;5046247;28;20210;-29
2022/05/13 02:45:02;;;;;;;6.97;4.77;;;;;;;;;;5060343;28;20203;-32
2022/05/13 02:47:29;;;;;;;5.67;5.07;;;;;;;;;;5051607;28;20243;-31
2022/05/13 02:52:38;;;;;;;4.97;4.47;;;;;;;;;;5070577;28;20234;-30
2022/05/13 02:55:07;;;;;;;8.20;5.27;;;;;;;;;;5064359;28;20200;-29
2022/05/13 02:57:34;;;;;;;5.90;4.97;;;;;;;;;;5038039;28;20221;-27
2022/05/13 03:00:04;;;;;;;5.90;4.83;;;;;;;;;;5071999;28;20206;-28
2022/05/13 03:02:33;;;;;;;4.00;3.43;;;;;;;;;;5055926;28;20200;-31
2022/05/13 03:05:01;;;;;;;4.63;4.07;;;;;;;;;;5045289;28;20237;-28
2022/05/13 03:07:28;;;;;;;3.43;3.13;;;;;;;;;;5066962;28;20303;-31
2022/05/13 03:09:56;;;;;;;3.70;3.10;;;;;;;;;;5071873;28;20674;-30
2022/05/13 03:12:23;;;;;;;3.73;3.07;;;;;;;;;;5041039;28;20212;-32
2022/05/13 03:14:50;;;;;;;3.57;3.27;;;;;;;;;;5062033;28;20203;-32
2022/05/13 03:17:17;;;;;;;4.87;3.33;;;;;;;;;;5057490;28;20228;-30
2022/05/13 03:19:44;;;;;;;3.50;2.80;;;;;;;;;;5043542;28;20214;-29
2022/05/13 03:22:13;;;;;;;3.33;3.03;;;;;;;;;;5066358;28;20487;-29
2022/05/13 03:24:40;;;;;;;3.43;2.60;;;;;;;;;;5052052;28;20205;-28
2022/05/13 03:27:09;;;;;;;2.90;2.70;;;;;;;;;;5037818;28;20235;-32
2022/05/13 03:29:36;;;;;;;3.50;3.03;;;;;;;;;;5049083;28;20202;-29
2022/05/13 03:32:04;;;;;;;3.53;3.13;;;;;;;;;;5062058;28;20294;-30
2022/05/13 03:34:31;;;;;;;3.50;3.20;;;;;;;;;;5037790;28;20231;-31
2022/05/13 03:36:58;;;;;;;3.20;2.90;;;;;;;;;;5051789;28;20224;-32
2022/05/13 03:39:27;;;;;;;3.40;2.90;;;;;;;;;;5059679;28;20214;-31
2022/05/13 03:41:54;;;;;;;3.83;2.87;;;;;;;;;;5056123;28;20228;-28
2022/05/13 03:44:22;;;;;;;3.20;2.90;;;;;;;;;;5057591;28;20211;-27
2022/05/13 03:46:49;;;;;;;3.30;3.00;;;;;;;;;;5029194;28;20243;-32
2022/05/13 03:49:16;;;;;;;3.80;3.20;;;;;;;;;;5033964;28;20306;-30
2022/05/13 03:51:43;;;;;;;11.57;3.30;;;;;;;;;;5047570;28;20308;-27
2022/05/13 03:54:10;;;;;;;3.87;3.30;;;;;;;;;;5050906;28;20222;-27
2022/05/13 03:56:39;;;;;;;3.90;3.00;;;;;;;;;;5041126;28;20229;-31
2022/05/13 03:59:06;;;;;;;3.77;3.40;;;;;;;;;;5060667;28;20214;-29
2022/05/13 04:01:33;;;;;;;4.07;3.37;;;;;;;;;;5070741;28;20206;-31
2022/05/13 04:04:00;;;;;;;5.40;3.33;;;;;;;;;;5042761;28;20209;-27
2022/05/13 04:09:13;;;;;;;5.87;3.07;;;;;;;;;;5054010;28;20190;-31
2022/05/13 04:16:04;;;;;;;3.27;2.97;;;;;;;;;;5058742;28;20267;-30
2022/05/13 04:17:14;;;;;;;3.83;3.33;;;;;;;;;;5030865;28;20277;-30
2022/05/13 04:19:43;;;;;;;4.80;3.97;;;;;;;;;;5043929;28;20213;-29
2022/05/13 04:22:13;;;;;;;8.37;4.07;;;;;;;;;;5073167;28;20192;-29
2022/05/13 04:24:40;;;;;;;4.50;4.10;;;;;;;;;;5048139;28;20199;-33
2022/05/13 04:27:09;;;;;;;6.50;4.37;;;;;;;;;;5038313;28;20229;-30
2022/05/13 04:29:37;;;;;;;4.50;4.10;;;;;;;;;;5045075;28;20209;-30
2022/05/13 04:32:04;;;;;;;5.10;4.07;;;;;;;;;;5057886;28;20208;-28
2022/05/13 04:34:34;;;;;;;4.40;3.90;;;;;;;;;;5047135;28;20232;-26
2022/05/13 04:37:02;;;;;;;4.53;4.07;;;;;;;;;;5060838;28;20225;-30
2022/05/13 04:39:29;;;;;;;5.87;4.17;;;;;;;;;;5050686;28;20211;-29
2022/05/13 04:44:43;;;;;;;4.43;3.87;;;;;;;;;;5062409;28;20258;-27
2022/05/13 04:49:51;;;;;;;3.87;3.57;;;;;;;;;;5046577;28;20204;-30
2022/05/13 04:52:18;;;;;;;3.97;3.57;;;;;;;;;;5065987;28;20570;-30
2022/05/13 04:54:45;;;;;;;7.53;4.50;;;;;;;;;;5053011;28;20315;-28
2022/05/13 04:57:12;;;;;;;4.83;4.13;;;;;;;;;;5042296;28;20278;-30
2022/05/13 04:59:39;;;;;;;4.80;3.13;;;;;;;;;;5051259;28;20208;-31
2022/05/13 05:02:08;;;;;;;5.30;3.77;;;;;;;;;;5055184;28;20204;-30
2022/05/13 05:04:35;;;;;;;4.10;3.70;;;;;;;;;;5036362;28;20309;-28
2022/05/13 05:07:02;;;;;;;4.37;3.27;;;;;;;;;;5067557;28;20221;-29
2022/05/13 05:09:29;;;;;;;3.90;3.53;;;;;;;;;;5032014;28;20257;-27
2022/05/13 05:11:56;;;;;;;5.93;4.10;;;;;;;;;;5043844;28;20205;-27
2022/05/13 05:14:23;;;;;;;5.60;3.50;;;;;;;;;;5055385;28;20221;-29
2022/05/13 05:16:50;;;;;;;4.50;3.60;;;;;;;;;;5048833;28;20227;-29
2022/05/13 05:19:19;;;;;;;5.53;3.37;;;;;;;;;;5039695;28;20229;-29
2022/05/13 05:21:46;;;;;;;4.93;3.90;;;;;;;;;;5060446;28;20202;-29
2022/05/13 05:24:14;;;;;;;7.03;3.60;;;;;;;;;;5054012;28;20211;-27
2022/05/13 05:26:41;;;;;;;5.23;3.83;;;;;;;;;;5057700;28;20221;-31
2022/05/13 05:29:08;;;;;;;4.67;3.80;;;;;;;;;;5052535;28;20202;-32
2022/05/13 05:31:36;;;;;;;4.10;3.60;;;;;;;;;;5050414;28;20306;-32
2022/05/13 05:34:03;;;;;;;3.57;3.13;;;;;;;;;;5038018;28;20224;-30
2022/05/13 05:36:32;;;;;;;5.73;3.90;;;;;;;;;;5060936;28;20319;-31
2022/05/13 05:38:59;;;;;;;4.30;3.90;;;;;;;;;;5048808;28;20290;-32
2022/05/13 05:41:26;;;;;;;8.57;4.00;;;;;;;;;;5053852;28;20212;-31
2022/05/13 05:43:53;;;;;;;3.83;3.13;;;;;;;;;;5074335;28;20206;-27
2022/05/13 05:46:21;;;;;;;4.80;3.60;;;;;;;;;;5075281;28;20230;-32
2022/05/13 05:48:48;;;;;;;4.43;3.53;;;;;;;;;;5048675;28;20238;-31
2022/05/13 05:51:15;;;;;;;4.23;3.83;;;;;;;;;;5058309;28;20212;-27
2022/05/13 05:59:13;;;;;;;5.97;3.73;;;;;;;;;;5050889;28;20200;-29
2022/05/13 06:01:40;;;;;;;4.00;3.30;;;;;;;;;;5050761;28;20199;-28
2022/05/13 06:04:07;;;;;;;4.33;3.30;;;;;;;;;;5041076;28;20311;-30
2022/05/13 06:06:35;;;;;;;7.23;3.77;;;;;;;;;;5052229;28;20233;-29
2022/05/13 06:09:03;;;;;;;4.67;3.73;;;;;;;;;;5075579;28;20201;-30
2022/05/13 06:11:31;;;;;;;4.83;3.60;;;;;;;;;;5056749;28;20566;-29
2022/05/13 06:13:59;;;;;;;4.67;3.90;;;;;;;;;;5037864;28;20227;-31
2022/05/13 06:16:26;;;;;;;4.73;4.30;;;;;;;;;;5063257;28;20228;-30
2022/05/13 06:18:54;;;;;;;4.73;3.83;;;;;;;;;;5037448;28;20209;-30
2022/05/13 06:21:21;;;;;;;8.03;4.27;;;;;;;;;;5049756;28;20289;-28
2022/05/13 06:23:48;;;;;;;7.50;3.93;;;;;;;;;;5054451;28;20206;-32
2022/05/13 06:26:17;;;;;;;6.07;4.30;;;;;;;;;;5053009;28;20317;-30
2022/05/13 06:28:44;;;;;;;3.67;3.37;;;;;;;;;;5053657;28;20289;-31
2022/05/13 06:31:12;;;;;;;7.83;4.17;;;;;;;;;;5066768;28;20198;-29
2022/05/13 06:33:39;;;;;;;7.23;4.20;;;;;;;;;;5051104;28;20230;-29
2022/05/13 06:36:06;;;;;;;4.93;3.93;;;;;;;;;;5067437;28;20324;-32
2022/05/13 06:38:34;;;;;;;4.93;4.13;;;;;;;;;;5057828;28;20206;-32
2022/05/13 06:41:01;;;;;;;7.63;4.30;;;;;;;;;;5051563;28;20268;-28
2022/05/13 06:43:30;;;;;;;5.00;4.47;;;;;;;;;;5050935;28;20301;-28
2022/05/13 06:45:57;;;;;;;6.03;4.10;;;;;;;;;;5058021;28;20222;-28
2022/05/13 06:48:24;;;;;;;5.87;4.67;;;;;;;;;;5048700;28;20218;-30
2022/05/13 06:50:52;;;;;;;7.43;4.50;;;;;;;;;;5050102;28;20242;-31
2022/05/13 06:53:20;;;;;;;7.03;5.07;;;;;;;;;;5074503;28;20202;-27
2022/05/13 06:55:47;;;;;;;6.70;4.23;;;;;;;;;;5069435;28;20312;-31
2022/05/13 06:58:15;;;;;;;4.87;4.03;;;;;;;;;;5049179;28;20210;-28
2022/05/13 07:00:44;;;;;;;6.67;4.37;;;;;;;;;;5070895;28;20298;-28
2022/05/13 07:03:15;;;;;;;5.97;4.73;;;;;;;;;;5045569;28;20207;-29
2022/05/13 07:05:42;;;;;;;5.50;4.80;;;;;;;;;;5046705;28;20276;-30
2022/05/13 07:08:09;;;;;;;7.07;4.70;;;;;;;;;;5053730;28;20233;-29
2022/05/13 07:10:39;;;;;;;4.87;4.40;;;;;;;;;;5048131;28;20257;-28
2022/05/13 07:13:06;;;;;;;6.90;4.77;;;;;;;;;;5071324;28;20202;-32
2022/05/13 07:15:34;;;;;;;6.13;4.40;;;;;;;;;;5058164;28;20554;-31
2022/05/13 07:18:03;;;;;;;5.47;4.73;;;;;;;;;;5040809;28;20228;-33
2022/05/13 07:20:30;;;;;;;5.80;4.23;;;;;;;;;;5062470;28;20201;-31
2022/05/13 07:22:57;;;;;;;6.70;4.97;;;;;;;;;;5046044;28;20297;-30
2022/05/13 07:25:26;;;;;;;5.63;4.60;;;;;;;;;;5048241;28;20306;-30
2022/05/13 07:27:53;;;;;;;5.17;4.53;;;;;;;;;;5047005;28;20203;-30
2022/05/13 07:30:20;;;;;;;7.27;4.67;;;;;;;;;;5067512;28;20297;-30
2022/05/13 07:32:48;;;;;;;6.67;4.60;;;;;;;;;;5045140;28;20206;-29
2022/05/13 07:35:16;;;;;;;6.13;5.20;;;;;;;;;;5042215;28;20219;-29
2022/05/13 07:37:44;;;;;;;4.60;4.20;;;;;;;;;;5064460;28;20792;-31
2022/05/13 07:42:58;;;;;;;7.20;4.07;;;;;;;;;;5053510;28;20202;-32
2022/05/13 07:45:26;;;;;;;4.83;3.50;;;;;;;;;;5064729;28;20222;-29
2022/05/13 07:47:54;;;;;;;3.60;3.30;;;;;;;;;;5055354;28;20221;-27
2022/05/13 07:50:23;;;;;;;6.17;3.70;;;;;;;;;;5049055;28;20357;-28
2022/05/13 07:52:51;;;;;;;4.40;3.37;;;;;;;;;;5054428;28;20205;-29
2022/05/13 07:55:19;;;;;;;6.00;3.07;;;;;;;;;;5053334;28;20275;-30
2022/05/13 07:57:47;;;;;;;3.70;3.10;;;;;;;;;;5049876;28;20221;-26
2022/05/13 08:03:05;;;;;;;4.30;3.23;;;;;;;;;;5032756;28;20274;-30
2022/05/13 08:08:11;;;;;;;3.50;3.13;;;;;;;;;;5162766;22;20234;-29
2022/05/13 08:10:39;;;;;;;5.90;3.60;;;;;;;;;;5030455;28;20673;-32
2022/05/13 08:13:06;;;;;;;6.37;3.73;;;;;;;;;;5034117;28;20203;-30
2022/05/13 08:15:34;;;;;;;6.00;3.30;;;;;;;;;;5050455;28;20222;-33
2022/05/13 08:18:01;;;;;;;4.83;3.43;;;;;;;;;;5024114;28;20216;-32
2022/05/13 08:20:28;;;;;;;5.10;3.07;;;;;;;;;;5028110;28;20678;-31
2022/05/13 08:22:55;;;;;;;5.60;3.57;;;;;;;;;;5050766;28;20202;-31
2022/05/13 08:25:24;;;;;;;6.57;3.97;;;;;;;;;;5031313;28;21751;-33
2022/05/13 08:27:52;;;;;;;4.20;3.57;;;;;;;;;;5039530;28;20211;-30
2022/05/13 08:30:19;;;;;;;7.97;3.37;;;;;;;;;;5031033;28;20218;-31
2022/05/13 08:32:47;;;;;;;3.77;3.07;;;;;;;;;;5024769;28;20214;-32
2022/05/13 08:35:15;;;;;;;6.20;3.80;;;;;;;;;;5031506;28;20688;-32
2022/05/13 08:37:42;;;;;;;3.97;3.10;;;;;;;;;;5046186;28;20274;-29
2022/05/13 08:40:14;;;;;;;4.03;2.90;;;;;;;;;;5053248;28;20203;-31
2022/05/13 08:42:45;;;;;;;6.53;3.27;;;;;;;;;;5040042;28;20240;-31
2022/05/13 08:45:12;;;;;;;4.13;3.27;;;;;;;;;;5037031;28;20198;-30
2022/05/13 08:47:46;;;;;;;8.23;3.60;;;;;;;;;;5034309;28;20207;-33
2022/05/13 08:50:17;;;;;;;5.20;3.40;;;;;;;;;;5023404;28;20562;-30
2022/05/13 08:55:33;;;;;;;4.93;3.03;;;;;;;;;;5042956;28;20243;-31
2022/05/13 08:58:04;;;;;;;6.17;3.53;;;;;;;;;;5023461;28;20200;-31
2022/05/13 09:00:33;;;;;;;8.60;3.73;;;;;;;;;;5038649;28;20204;-33
2022/05/13 09:03:02;;;;;;;6.13;3.50;;;;;;;;;;5022214;28;20227;-29
2022/05/13 09:05:31;;;;;;;4.20;3.37;;;;;;;;;;5025553;28;20591;-30
2022/05/13 09:08:00;;;;;;;5.50;3.50;;;;;;;;;;5041938;28;20202;-29
2022/05/13 09:10:28;;;;;;;5.57;3.27;;;;;;;;;;5041788;28;20211;-33
2022/05/13 09:12:58;;;;;;;6.87;3.13;;;;;;;;;;5034488;28;20212;-32
2022/05/13 09:15:31;;;;;;;4.80;3.27;;;;;;;;;;5041933;28;20306;-28
2022/05/13 09:18:02;;;;;;;5.37;3.13;;;;;;;;;;5022752;28;20215;-31
2022/05/13 09:20:29;;;;;;;5.10;3.23;;;;;;;;;;5027802;28;20207;-33
2022/05/13 09:22:58;;;;;;;5.47;3.60;;;;;;;;;;5042179;28;20198;-31
2022/05/13 09:25:27;;;;;;;6.70;3.40;;;;;;;;;;5027551;28;20235;-32
2022/05/13 09:27:58;;;;;;;5.57;3.57;;;;;;;;;;5034924;28;20208;-31
2022/05/13 09:30:29;;;;;;;5.20;3.07;;;;;;;;;;5038313;28;20212;-31
2022/05/13 09:32:58;;;;;;;8.50;3.73;;;;;;;;;;5024468;28;20252;-30
2022/05/13 09:35:32;;;;;;;4.77;3.30;;;;;;;;;;5031151;28;20235;-30
2022/05/13 09:37:59;;;;;;;8.77;4.00;;;;;;;;;;5034906;28;20637;-29
2022/05/13 09:40:27;;;;;;;5.00;3.23;;;;;;;;;;5034326;28;20206;-30
2022/05/13 09:42:55;;;;;;;7.70;3.43;;;;;;;;;;5031347;28;20212;-31
2022/05/13 09:45:26;;;;;;;6.67;3.50;;;;;;;;;;5038976;28;20209;-32
2022/05/13 09:48:12;;;;;;;5.07;3.30;;;;;;;;;;5038795;28;20558;-30
2022/05/13 09:50:42;;;;;;;6.30;3.30;;;;;;;;;;5036739;28;20207;-31
2022/05/13 09:53:25;;;;;;;6.03;2.97;;;;;;;;;;5046510;28;20211;-29
2022/05/13 09:55:53;;;;;;;6.17;3.30;;;;;;;;;;5029683;28;20232;-33
2022/05/13 09:58:22;;;;;;;7.60;3.60;;;;;;;;;;5026448;28;20225;-29
2022/05/13 10:00:50;;;;;;;6.80;3.30;;;;;;;;;;5035135;28;20219;-30
2022/05/13 10:03:20;;;;;;;6.10;2.40;;;;;;;;;;5028480;28;20220;-30
2022/05/13 10:05:52;;;;;;;6.37;2.23;;;;;;;;;;5044555;28;20311;-31
2022/05/13 10:08:22;;;;;;;7.60;2.40;;;;;;;;;;5048652;28;20239;-31
2022/05/13 10:14:00;;;;;;;3.60;2.13;;;;;;;;;;5030000;28;20258;-31
2022/05/13 10:16:30;;;;;;;4.90;2.13;;;;;;;;;;5039877;28;20229;-29
2022/05/13 10:19:01;;;;;;;5.60;2.20;;;;;;;;;;5019954;28;20211;-30
2022/05/13 10:21:31;;;;;;;5.77;2.07;;;;;;;;;;5040812;28;20207;-32
2022/05/13 10:24:00;;;;;;;7.63;2.30;;;;;;;;;;5045367;28;20216;-32
2022/05/13 10:26:29;;;;;;;5.17;2.00;;;;;;;;;;5029109;28;20214;-31
2022/05/13 10:28:58;;;;;;;6.53;2.50;;;;;;;;;;5035220;28;20203;-30
2022/05/13 10:31:26;;;;;;;8.07;1.73;;;;;;;;;;5044604;28;20208;-32
2022/05/13 10:33:57;;;;;;;4.10;2.00;;;;;;;;;;5025998;28;20204;-32
2022/05/13 10:36:27;;;;;;;6.40;2.40;;;;;;;;;;5036778;28;20243;-33
2022/05/13 10:38:56;;;;;;;3.37;1.80;;;;;;;;;;5032717;28;20714;-28
2022/05/13 10:41:30;;;;;;;7.17;2.40;;;;;;;;;;5030292;28;20225;-32
2022/05/13 10:44:00;;;;;;;8.93;2.27;;;;;;;;;;5027625;28;20212;-32
2022/05/13 10:46:31;;;;;;;6.90;1.80;;;;;;;;;;5048496;28;20226;-33
2022/05/13 10:48:59;;;;;;;6.80;2.73;;;;;;;;;;5014814;28;20209;-30
2022/05/13 10:51:33;;;;;;;5.97;2.17;;;;;;;;;;5028120;28;20206;-32
2022/05/13 10:54:10;;;;;;;7.43;2.37;;;;;;;;;;5052554;28;20212;-33
2022/05/13 10:56:42;;;;;;;4.67;1.90;;;;;;;;;;5027331;28;20532;-30
2022/05/13 10:59:16;;;;;;;4.30;1.90;;;;;;;;;;5031218;28;20438;-30
2022/05/13 11:01:48;;;;;;;2.93;1.80;;;;;;;;;;5048117;28;20208;-32
2022/05/13 11:04:20;;;;;;;4.13;1.70;;;;;;;;;;5021799;28;20351;-31
2022/05/13 11:06:54;;;;;;;3.80;2.00;;;;;;;;;;5040863;28;20235;-30
2022/05/13 11:09:25;;;;;;;2.77;1.80;;;;;;;;;;5051840;28;20238;-31
2022/05/13 11:11:54;;;;;;;6.10;1.90;;;;;;;;;;5042677;28;20211;-32
2022/05/13 11:14:27;;;;;;;3.93;1.77;;;;;;;;;;5041270;28;20673;-32
2022/05/13 11:16:56;;;;;;;4.13;1.77;;;;;;;;;;5046108;28;20281;-33
2022/05/13 11:19:30;;;;;;;6.30;2.10;;;;;;;;;;5029244;28;20659;-30
2022/05/13 11:22:02;;;;;;;3.87;2.10;;;;;;;;;;5031862;28;20204;-31
2022/05/13 11:27:29;;;;;;;7.43;2.17;;;;;;;;;;5021378;28;20279;-30
2022/05/13 11:30:01;;;;;;;1.70;1.47;;;;;;;;;;5042045;28;20665;-30
2022/05/13 11:32:32;;;;;;;3.97;1.60;;;;;;;;;;5029125;28;20272;-32
2022/05/13 11:35:06;;;;;;;6.77;1.97;;;;;;;;;;5035814;28;20663;-29
2022/05/13 11:37:39;;;;;;;4.50;1.87;;;;;;;;;;5051777;28;20197;-31
2022/05/13 11:40:14;;;;;;;6.33;1.87;;;;;;;;;;5050648;28;20250;-30
2022/05/13 11:45:39;;;;;;;4.40;1.60;;;;;;;;;;5016796;28;20234;-31
2022/05/13 11:48:16;;;;;;;2.87;1.70;;;;;;;;;;5027267;28;20470;-29
2022/05/13 11:50:43;;;;;;;1.63;1.40;;;;;;;;;;5026227;28;20209;-31
2022/05/13 11:53:12;;;;;;;3.17;2.00;;;;;;;;;;5036984;28;20210;-29
2022/05/13 11:55:49;;;;;;;7.07;1.80;;;;;;;;;;5031078;28;20317;-30
2022/05/13 11:58:47;;;;;;;3.53;1.60;;;;;;;;;;5026737;28;20218;-30
2022/05/13 12:01:14;;;;;;;3.77;2.10;;;;;;;;;;4969968;28;20257;-30
2022/05/13 12:03:41;;;;;;;3.60;2.07;;;;;;;;;;5003925;28;20265;-30
2022/05/13 12:06:10;;;;;;;2.83;1.80;;;;;;;;;;5030518;28;20245;-29
2022/05/13 12:08:43;;;;;;;2.90;1.83;;;;;;;;;;5031222;28;20297;-29
2022/05/13 12:11:20;;;;;;;2.97;1.63;;;;;;;;;;5031271;28;20216;-31
2022/05/13 12:13:51;;;;;;;6.17;1.73;;;;;;;;;;5038066;28;20470;-29
2022/05/13 12:16:28;;;;;;;4.00;1.97;;;;;;;;;;5050916;28;20236;-30
2022/05/13 12:18:58;;;;;;;3.37;1.53;;;;;;;;;;5018281;28;20228;-32
2022/05/13 12:21:31;;;;;;;3.07;1.97;;;;;;;;;;5033314;28;20232;-32
2022/05/13 12:24:04;;;;;;;3.13;1.83;;;;;;;;;;5032110;28;20214;-31
2022/05/13 12:26:46;;;;;;;4.80;2.03;;;;;;;;;;5027001;28;20249;-29
2022/05/13 12:29:18;;;;;;;5.80;1.80;;;;;;;;;;5029430;28;20206;-33
2022/05/13 12:31:47;;;;;;;6.50;2.13;;;;;;;;;;5028967;28;20210;-31
2022/05/13 12:39:58;;;;;;;3.10;2.10;;;;;;;;;;5050384;28;20208;-31
2022/05/13 12:42:44;;;;;;;3.87;2.23;;;;;;;;;;5029057;28;20213;-32
2022/05/13 12:45:13;;;;;;;7.37;2.00;;;;;;;;;;5031880;28;20706;-29
2022/05/13 12:48:12;;;;;;;2.40;1.87;;;;;;;;;;5026967;28;20206;-30
2022/05/13 12:50:41;;;;;;;6.47;2.17;;;;;;;;;;5037216;28;20235;-31
2022/05/13 12:53:23;;;;;;;4.60;2.17;;;;;;;;;;5028709;28;20210;-31
2022/05/13 12:55:51;;;;;;;4.10;2.27;;;;;;;;;;5029880;28;20238;-29
2022/05/13 12:58:20;;;;;;;6.47;2.07;;;;;;;;;;5026152;28;20613;-30
2022/05/13 13:00:48;;;;;;;3.87;2.20;;;;;;;;;;5047167;28;20656;-32
2022/05/13 13:03:16;;;;;;;3.63;1.90;;;;;;;;;;5027072;28;20297;-29
2022/05/13 13:05:51;;;;;;;5.00;2.20;;;;;;;;;;5032779;28;20321;-31
2022/05/13 13:08:19;;;;;;;3.17;2.17;;;;;;;;;;5049727;28;20205;-29
2022/05/13 13:10:50;;;;;;;3.80;2.57;;;;;;;;;;5016049;28;20292;-30
2022/05/13 13:13:22;;;;;;;3.33;2.23;;;;;;;;;;5024131;28;20220;-34
2022/05/13 13:15:51;;;;;;;6.10;2.37;;;;;;;;;;5047885;28;20225;-32
2022/05/13 13:18:18;;;;;;;3.80;2.07;;;;;;;;;;5020208;28;20214;-31
2022/05/13 13:20:47;;;;;;;6.33;2.50;;;;;;;;;;5027623;28;20220;-32
2022/05/13 13:23:15;;;;;;;3.73;2.30;;;;;;;;;;5033451;28;20293;-30
2022/05/13 13:25:43;;;;;;;4.93;2.23;;;;;;;;;;5023433;28;20233;-32
2022/05/13 13:28:11;;;;;;;4.05;2.38;;;;;;;;;;5032670;28;20203;-32
2022/05/13 13:30:43;;;;;;;4.73;2.13;;;;;;;;;;5039163;28;20217;-32
2022/05/13 13:33:11;;;;;;;5.43;2.28;;;;;;;;;;5024461;28;20204;-31
2022/05/13 13:35:39;;;;;;;3.40;2.70;;;;;;;;;;5037807;28;20229;-31
2022/05/13 13:38:08;;;;;;;4.63;2.20;;;;;;;;;;5051725;28;20208;-30
2022/05/13 13:40:37;;;;;;;2.10;1.93;;;;;;;;;;5031847;28;20198;-29
2022/05/13 13:43:11;;;;;;;5.03;2.20;;;;;;;;;;5018010;28;20198;-30
2022/05/13 13:45:40;;;;;;;5.43;2.30;;;;;;;;;;5037734;28;20233;-32
2022/05/13 13:48:10;;;;;;;4.07;2.20;;;;;;;;;;5018694;28;20208;-30
2022/05/13 13:50:40;;;;;;;6.20;2.80;;;;;;;;;;5029194;28;20669;-30
2022/05/13 13:53:07;;;;;;;3.60;2.20;;;;;;;;;;5036549;28;20199;-29
2022/05/13 13:55:38;;;;;;;5.75;2.35;;;;;;;;;;5026855;28;20253;-33
2022/05/13 13:58:20;;;;;;;4.47;2.30;;;;;;;;;;5020476;28;20207;-30
2022/05/13 14:00:49;;;;;;;4.37;2.20;;;;;;;;;;5047314;28;20664;-31
2022/05/13 14:03:17;;;;;;;4.03;2.33;;;;;;;;;;5028323;28;20200;-30
2022/05/13 14:05:46;;;;;;;3.72;2.00;;;;;;;;;;5025915;28;20230;-32
2022/05/13 14:10:46;;;;;;;4.53;2.30;;;;;;;;;;5054212;28;20284;-31
2022/05/13 14:13:13;;;;;;;5.20;2.50;;;;;;;;;;5043389;28;20202;-31
2022/05/13 14:15:43;;;;;;;5.73;2.60;;;;;;;;;;5051496;28;20232;-35
2022/05/13 14:18:13;;;;;;;2.50;2.30;;;;;;;;;;5045336;28;20202;-33
2022/05/13 14:20:41;;;;;;;3.23;1.97;;;;;;;;;;5046489;28;20237;-34
2022/05/13 14:23:14;;;;;;;4.00;2.30;;;;;;;;;;5055243;28;20198;-34
2022/05/13 14:25:43;;;;;;;3.73;1.90;;;;;;;;;;5055529;28;20222;-36
2022/05/13 14:28:12;;;;;;;2.60;2.23;;;;;;;;;;5049503;28;20210;-37
2022/05/13 14:30:39;;;;;;;3.43;2.30;;;;;;;;;;5055118;28;20210;-38
2022/05/13 14:33:07;;;;;;;3.97;1.98;;;;;;;;;;5047990;28;20209;-32
2022/05/13 14:35:36;;;;;;;4.40;1.83;;;;;;;;;;5047532;28;20271;-34
2022/05/13 14:38:04;;;;;;;3.70;1.77;;;;;;;;;;5055436;28;20236;-37
2022/05/13 14:40:34;;;;;;;5.30;2.10;;;;;;;;;;5054218;28;20209;-36
2022/05/13 14:43:04;;;;;;;2.83;1.70;;;;;;;;;;5055992;28;20204;-34
2022/05/13 14:45:35;;;;;;;4.07;2.00;;;;;;;;;;5055772;28;20225;-31
2022/05/13 14:48:16;;;;;;;2.17;1.70;;;;;;;;;;5048490;28;20205;-36
2022/05/13 14:50:46;;;;;;;4.37;2.67;;;;;;;;;;5055607;28;20216;-35
2022/05/13 14:53:15;;;;;;;3.70;1.90;;;;;;;;;;5055912;28;20205;-30
2022/05/13 14:55:44;;;;;;;2.00;1.40;;;;;;;;;;5052451;28;20316;-36
2022/05/13 14:58:20;;;;;;;5.90;1.40;;;;;;;;;;5045597;28;20225;-35
2022/05/13 15:00:50;;;;;;;4.27;1.87;;;;;;;;;;5053840;28;20235;-33
2022/05/13 15:03:22;;;;;;;3.72;2.10;;;;;;;;;;5039616;28;20221;-34
2022/05/13 15:05:52;;;;;;;3.13;1.80;;;;;;;;;;5045521;28;20222;-30
2022/05/13 15:08:36;;;;;;;4.17;1.80;;;;;;;;;;5054105;28;20190;-34
2022/05/13 15:11:03;;;;;;;1.63;1.50;;;;;;;;;;5043983;28;20245;-32
2022/05/13 15:13:31;;;;;;;2.50;1.80;;;;;;;;;;5043844;28;20220;-30
2022/05/13 15:15:58;;;;;;;4.50;1.63;;;;;;;;;;5053281;28;20228;-34
2022/05/13 15:18:32;;;;;;;3.40;1.97;;;;;;;;;;5044010;28;20242;-35
2022/05/13 15:21:01;;;;;;;3.43;1.63;;;;;;;;;;5051822;28;20205;-35
2022/05/13 15:23:28;;;;;;;2.17;1.80;;;;;;;;;;5053944;28;20201;-38
2022/05/13 15:25:56;;;;;;;2.53;1.60;;;;;;;;;;5051836;28;20276;-35
2022/05/13 15:28:24;;;;;;;4.27;1.53;;;;;;;;;;5044796;28;20206;-37
2022/05/13 15:30:52;;;;;;;3.40;1.80;;;;;;;;;;5053084;28;20216;-32
2022/05/13 15:33:19;;;;;;;2.03;1.80;;;;;;;;;;5043334;28;20321;-35
2022/05/13 15:35:47;;;;;;;3.73;2.10;;;;;;;;;;5052081;28;20316;-37
2022/05/13 15:38:16;;;;;;;6.13;2.20;;;;;;;;;;5053531;28;20225;-37
2022/05/13 15:40:43;;;;;;;2.77;1.83;;;;;;;;;;5054417;28;20206;-35
2022/05/13 15:43:10;;;;;;;2.10;1.80;;;;;;;;;;5047216;28;20276;-36
2022/05/13 15:45:40;;;;;;;4.60;2.03;;;;;;;;;;5051388;28;20229;-35
2022/05/13 15:48:08;;;;;;;3.67;1.83;;;;;;;;;;5044630;28;20202;-36
2022/05/13 15:53:22;;;;;;;3.70;1.90;;;;;;;;;;5053986;28;20189;-37
2022/05/13 15:55:52;;;;;;;4.17;1.70;;;;;;;;;;5053929;28;20244;-35
2022/05/13 15:58:21;;;;;;;2.00;1.80;;;;;;;;;;5043741;28;20264;-35
2022/05/13 16:00:48;;;;;;;2.97;1.67;;;;;;;;;;5052947;28;20259;-35
2022/05/13 16:03:23;;;;;;;2.53;1.60;;;;;;;;;;5039864;28;20210;-38
2022/05/13 16:05:50;;;;;;;2.17;1.97;;;;;;;;;;5052651;28;20310;-39
2022/05/13 16:08:17;;;;;;;4.50;1.43;;;;;;;;;;5053026;28;20262;-36
2022/05/13 16:10:45;;;;;;;3.80;1.50;;;;;;;;;;5048489;28;20221;-38
2022/05/13 16:13:14;;;;;;;3.97;1.77;;;;;;;;;;5047534;28;20306;-34
2022/05/13 16:15:47;;;;;;;2.27;1.40;;;;;;;;;;5052705;28;20347;-35
2022/05/13 16:18:16;;;;;;;4.73;2.10;;;;;;;;;;5044019;28;20238;-31
2022/05/13 16:20:44;;;;;;;2.23;1.50;;;;;;;;;;5046299;28;20247;-37
2022/05/13 16:23:14;;;;;;;5.53;1.30;;;;;;;;;;5052663;28;20288;-31
2022/05/13 16:25:42;;;;;;;3.30;1.43;;;;;;;;;;5047731;28;20345;-34
2022/05/13 16:28:10;;;;;;;3.77;1.43;;;;;;;;;;5046657;28;20205;-39
2022/05/13 16:30:37;;;;;;;3.77;2.07;;;;;;;;;;5052748;28;20208;-37
2022/05/13 16:33:05;;;;;;;3.50;1.13;;;;;;;;;;5043361;28;20212;-33
2022/05/13 16:35:32;;;;;;;4.53;1.30;;;;;;;;;;5051517;28;20291;-38
2022/05/13 16:38:00;;;;;;;3.03;1.50;;;;;;;;;;5052925;28;20217;-39
2022/05/13 16:40:28;;;;;;;1.80;1.27;;;;;;;;;;5047129;28;20282;-31
2022/05/13 16:42:55;;;;;;;3.70;1.67;;;;;;;;;;5037940;28;20209;-36
2022/05/13 16:45:24;;;;;;;2.47;1.40;;;;;;;;;;5051995;28;20212;-38
2022/05/13 16:47:52;;;;;;;5.23;1.33;;;;;;;;;;5047290;28;20212;-37
2022/05/13 16:50:21;;;;;;;4.33;1.47;;;;;;;;;;5040864;28;20215;-35
2022/05/13 16:52:48;;;;;;;2.53;1.50;;;;;;;;;;5052105;28;20205;-33
2022/05/13 16:55:16;;;;;;;5.13;1.87;;;;;;;;;;5044781;28;20213;-34
2022/05/13 16:57:43;;;;;;;5.03;1.30;;;;;;;;;;5040050;28;20218;-36
2022/05/13 17:00:12;;;;;;;3.20;1.30;;;;;;;;;;5044203;28;20201;-33
2022/05/13 17:02:40;;;;;;;3.60;1.30;;;;;;;;;;5034604;28;20220;-33
2022/05/13 17:05:09;;;;;;;3.30;1.43;;;;;;;;;;5046000;28;20260;-40
2022/05/13 17:07:36;;;;;;;8.30;6.23;;;;;;;;;;5050639;28;20204;-37
2022/05/13 17:19:15;;;;;;;2.13;1.10;;;;;;;;;;5040480;28;20279;-35
2022/05/13 17:21:09;;;;;;;2.00;1.20;;;;;;;;;;5044915;28;20208;-37
2022/05/13 17:23:36;;;;;;;4.50;1.70;;;;;;;;;;5052420;28;20233;-34
2022/05/13 17:26:03;;;;;;;2.50;1.57;;;;;;;;;;5041315;28;20620;-33